»·PEaware :: N117AL KSBA-KCRQ

N117AL :: KSBA-KCRQ

FLIGHT INFORMATION

Flight Status: Arrived
Operator: Privately registered:
United States
More flights under this callsign
Pilot: Adam W. (20046)
Aircraft: BOMBARDIER BD-100 CHALLENGER 300
(CL30)
More flights by this aircraft type
Origin: KSBA Santa Barbara Mun
United States
Destination: KCRQ McClellan-Palomar
United States
More flights between these airports :: More routes between these airports
Route: +KWANG VTU V208 SXC V208 OCN
File this flight plan on PilotEdge
Remarks: TEC route SBAP26
Altitude:
(Current/Filed)
11,000ft
Speed:
(Current/Filed)
370kts
Departed: 13-Sep-18 12:12 PM
Arrived: 13-Sep-18 12:56 PM
Distance/Time
Traveled:
123nm/0:44
Distance/Time
To Go:
Arrived

Flight Plot

Page will automatically refresh every two minutes.


Map Options




Map Legend


Flown Route
Filed Route
Departure Airport
Arrival Airport
Navaid (VOR, NDB)
Fix

Horizontal Profiles

Position Reports

Time Latitude Longitude Heading Altitude Ground
Speed
13-Sep-18 11:51 34.432709 -119.835643 340 17ft 0kts
13-Sep-18 11:52 34.432709 -119.835643 340 17ft 0kts
13-Sep-18 11:53 34.432709 -119.835643 340 17ft 0kts
13-Sep-18 11:54 34.432709 -119.835643 340 17ft 0kts
13-Sep-18 11:55 34.432709 -119.835643 340 17ft 0kts
13-Sep-18 11:56 34.432709 -119.835643 340 17ft 0kts
13-Sep-18 11:57 34.432709 -119.835643 340 17ft 0kts
13-Sep-18 11:58 34.432709 -119.835643 340 17ft 0kts
13-Sep-18 11:59 34.432709 -119.835643 340 17ft 0kts
13-Sep-18 12:00 34.432709 -119.835643 340 17ft 0kts
13-Sep-18 12:01 34.432709 -119.835643 340 17ft 0kts
13-Sep-18 12:02 34.432709 -119.835643 340 17ft 0kts
13-Sep-18 12:03 34.432709 -119.835643 340 17ft 0kts
13-Sep-18 12:04 34.432709 -119.835643 340 17ft 0kts
13-Sep-18 12:05 34.432709 -119.835643 340 17ft 0kts
13-Sep-18 12:06 34.432709 -119.835643 340 17ft 0kts
13-Sep-18 12:07 34.432709 -119.835643 340 17ft 0kts
13-Sep-18 12:08 34.432709 -119.835643 340 17ft 0kts
13-Sep-18 12:09 34.432709 -119.835643 340 17ft 0kts
13-Sep-18 12:10 34.432709 -119.835643 340 17ft 0kts
13-Sep-18 12:11 34.432826 -119.835546 117 17ft 0kts
13-Sep-18 12:12 34.430168 -119.835355 177 17ft 24kts
13-Sep-18 12:13 34.428724 -119.835307 178 17ft 0kts
13-Sep-18 12:14 34.427806 -119.839077 268 17ft 83kts
13-Sep-18 12:15 34.425158 -119.909256 267 2149ft 285kts
13-Sep-18 12:16 34.413411 -120.010733 232 3103ft 313kts
13-Sep-18 12:17 34.334977 -120.006993 151 5390ft 323kts
13-Sep-18 12:18 34.255317 -119.952911 151 7869ft 337kts
13-Sep-18 12:19 34.171572 -119.893965 151 7990ft 345kts
13-Sep-18 12:20 34.091151 -119.837153 151 7991ft 332kts
13-Sep-18 12:21 34.033836 -119.753312 120 9721ft 349kts
13-Sep-18 12:22 33.983986 -119.647208 123 10999ft 390kts
13-Sep-18 12:23 33.930212 -119.536159 123 10990ft 379kts
13-Sep-18 12:24 33.877027 -119.427507 123 11009ft 379kts
13-Sep-18 12:25 33.825576 -119.322917 124 11009ft 380kts
13-Sep-18 12:26 33.771568 -119.213461 124 11009ft 380kts
13-Sep-18 12:27 33.717664 -119.104568 124 11010ft 380kts
13-Sep-18 12:28 33.663656 -118.995812 124 11010ft 380kts
13-Sep-18 12:29 33.609408 -118.886902 124 10979ft 382kts
13-Sep-18 12:30 33.554710 -118.777399 124 11001ft 382kts
13-Sep-18 12:31 33.500035 -118.668268 124 11001ft 383kts
13-Sep-18 12:32 33.445110 -118.558978 124 11001ft 383kts
13-Sep-18 12:33 33.389948 -118.449551 124 11002ft 384kts
13-Sep-18 12:34 33.364383 -118.327319 102 11018ft 390kts
13-Sep-18 12:35 33.346564 -118.199884 101 11052ft 390kts
13-Sep-18 12:36 33.329321 -118.071565 101 11046ft 381kts
13-Sep-18 12:37 33.313552 -117.953852 100 9470ft 353kts
13-Sep-18 12:38 33.298318 -117.840670 99 6864ft 338kts
13-Sep-18 12:39 33.283006 -117.733051 108 4998ft 331kts
13-Sep-18 12:40 33.237385 -117.636934 121 5010ft 335kts
13-Sep-18 12:41 33.190912 -117.541778 121 5009ft 326kts
13-Sep-18 12:42 33.145437 -117.448444 121 5009ft 326kts
13-Sep-18 12:43 33.100890 -117.354897 121 5009ft 321kts
13-Sep-18 12:44 33.057398 -117.263240 121 5007ft 307kts
13-Sep-18 12:45 33.041074 -117.183812 76 5010ft 243kts
13-Sep-18 12:46 33.057420 -117.106596 76 5009ft 242kts
13-Sep-18 12:47 33.073485 -117.029724 76 5011ft 233kts
13-Sep-18 12:48 33.089238 -116.952590 76 5016ft 238kts
13-Sep-18 12:49 33.103955 -116.878138 75 5027ft 229kts
13-Sep-18 12:50 33.144288 -116.871318 283 5050ft 206kts
13-Sep-18 12:51 33.156651 -116.939854 281 5030ft 215kts
13-Sep-18 12:52 33.169306 -117.007736 281 3994ft 208kts
13-Sep-18 12:53 33.164154 -117.069048 255 3506ft 171kts
13-Sep-18 12:54 33.153216 -117.124947 258 2937ft 173kts
13-Sep-18 12:55 33.144574 -117.179222 258 1991ft 150kts
13-Sep-18 12:56 33.137685 -117.221938 258 1208ft 112kts
13-Sep-18 12:57 33.131699 -117.258859 258 594ft 119kts
13-Sep-18 12:58 33.127484 -117.285070 258 307ft 30kts
13-Sep-18 12:59 33.126567 -117.285359 79 307ft 28kts
13-Sep-18 13:00 33.126741 -117.282100 171 307ft 0kts
13-Sep-18 13:01 33.126741 -117.282100 171 307ft 0kts
13-Sep-18 13:02 33.125310 -117.282613 349 307ft 0kts
13-Sep-18 13:03 33.291185 -117.787848 99 5321ft 329kts

Navigation Log

Ident Type
1. KSBA Airport
2. KWANG Fix
3. VTU Navaid
4. WEEZL Fix
5. SXC Navaid
6. AVOLS Fix
7. PACIF Fix
8. HUBRD Fix
9. OCN Navaid
10. KCRQ Airport